createdAt,value
2019-04-23T00:02:24.541Z,12.60
2019-04-23T00:05:21.071Z,12.40
2019-04-23T00:10:59.069Z,12.30
2019-04-23T00:13:44.181Z,12.40
2019-04-23T00:16:49.257Z,12.30
2019-04-23T00:19:28.535Z,12.30
2019-04-23T00:22:39.833Z,12.20
2019-04-23T00:26:01.166Z,12.20
2019-04-23T00:28:45.121Z,12.10
2019-04-23T00:31:34.969Z,12.10
2019-04-23T00:34:30.829Z,12.10
2019-04-23T00:37:18.630Z,12.10
2019-04-23T00:40:03.150Z,12.10
2019-04-23T00:42:53.376Z,12.10
2019-04-23T00:45:44.219Z,12.10
2019-04-23T00:48:35.041Z,12.10
2019-04-23T00:51:22.130Z,12.00
2019-04-23T00:54:14.465Z,12.00
2019-04-23T00:57:23.164Z,12.00
2019-04-23T01:00:03.391Z,11.90
2019-04-23T01:02:51.147Z,11.90
2019-04-23T01:05:37.781Z,11.80
2019-04-23T01:08:24.923Z,11.80
2019-04-23T01:11:16.444Z,11.70
2019-04-23T01:14:14.817Z,11.70
2019-04-23T01:16:53.021Z,11.70
2019-04-23T01:19:51.777Z,11.70
2019-04-23T01:22:25.096Z,11.60
2019-04-23T01:25:48.337Z,11.60
2019-04-23T01:28:55.994Z,11.50
2019-04-23T01:31:44.575Z,11.40
2019-04-23T01:34:31.446Z,11.40
2019-04-23T01:37:28.364Z,11.40
2019-04-23T01:40:16.254Z,11.30
2019-04-23T01:43:00.010Z,11.30
2019-04-23T01:45:40.986Z,11.30
2019-04-23T01:48:40.525Z,11.40
2019-04-23T01:51:38.072Z,11.30
2019-04-23T01:54:17.741Z,11.20
2019-04-23T01:57:11.556Z,11.20
2019-04-23T02:00:03.387Z,11.10
2019-04-23T02:02:54.516Z,11.20
2019-04-23T02:08:26.147Z,11.20
2019-04-23T02:11:11.805Z,11.10
2019-04-23T02:14:09.498Z,11.10
2019-04-23T02:16:55.083Z,11.00
2019-04-23T02:19:51.553Z,10.90
2019-04-23T02:23:06.443Z,10.80
2019-04-23T02:25:52.124Z,10.70
2019-04-23T02:28:42.755Z,10.50
2019-04-23T02:31:45.250Z,10.30
2019-04-23T02:40:19.732Z,10.50
2019-04-23T02:48:38.174Z,10.40
2019-04-23T02:51:19.021Z,10.50
2019-04-23T02:54:15.593Z,10.60
2019-04-23T03:02:40.880Z,10.50
2019-04-23T03:05:25.024Z,10.50
2019-04-23T03:08:16.758Z,10.50
2019-04-23T03:19:52.323Z,10.60
2019-04-23T03:26:09.111Z,10.60
2019-04-23T03:35:08.716Z,10.50
2019-04-23T03:40:09.874Z,10.50
2019-04-23T03:43:07.059Z,10.50
2019-04-23T03:51:38.240Z,10.20
2019-04-23T03:54:37.724Z,10.30
2019-04-23T03:57:18.540Z,10.30
2019-04-23T04:00:03.390Z,10.40
2019-04-23T04:03:03.734Z,10.40
2019-04-23T04:05:45.821Z,10.40
2019-04-23T04:08:26.753Z,10.40
2019-04-23T04:11:25.821Z,10.40
2019-04-23T04:14:27.619Z,10.40
2019-04-23T04:17:01.335Z,10.40
2019-04-23T04:19:46.799Z,10.50
2019-04-23T04:28:21.142Z,10.60
2019-04-23T04:31:03.630Z,10.60
2019-04-23T04:37:02.329Z,10.70
2019-04-23T04:39:42.807Z,10.70
2019-04-23T04:42:30.367Z,10.70
2019-04-23T04:48:00.454Z,10.80
2019-04-23T04:51:04.265Z,10.90
2019-04-23T04:59:22.713Z,10.90
2019-04-23T05:05:20.550Z,11.00
2019-04-23T05:08:15.559Z,11.10
2019-04-23T05:13:44.927Z,11.10
2019-04-23T05:19:37.201Z,11.10
2019-04-23T05:22:06.549Z,11.10
2019-04-23T05:24:51.070Z,11.10
2019-04-23T05:27:55.319Z,11.20
2019-04-23T05:30:39.812Z,11.20
2019-04-23T05:33:22.438Z,11.30
2019-04-23T05:36:26.682Z,11.40
2019-04-23T05:39:07.694Z,11.40
2019-04-23T05:42:04.433Z,11.40
2019-04-23T05:44:43.168Z,11.50
2019-04-23T05:47:50.946Z,11.50
2019-04-23T05:53:11.426Z,11.60
2019-04-23T05:56:02.117Z,11.70
2019-04-23T05:58:53.123Z,11.70
2019-04-23T06:04:32.540Z,11.80
2019-04-23T06:07:33.300Z,11.90
2019-04-23T06:10:15.004Z,11.90
2019-04-23T06:12:57.483Z,11.90
2019-04-23T06:15:53.879Z,12.00
2019-04-23T06:18:44.353Z,12.10
2019-04-23T06:21:34.550Z,12.30
2019-04-23T06:27:16.596Z,12.40
2019-04-23T06:29:57.728Z,12.60
2019-04-23T06:32:46.346Z,12.60
2019-04-23T06:35:41.998Z,12.60
2019-04-23T06:41:23.943Z,12.60
2019-04-23T06:47:06.898Z,12.90
2019-04-23T06:49:55.719Z,13.00
2019-04-23T06:52:44.093Z,13.10
2019-04-23T06:55:37.356Z,13.30
2019-04-23T07:01:15.187Z,13.70
2019-04-23T07:04:14.312Z,13.90
2019-04-23T07:07:20.857Z,14.00
2019-04-23T07:09:45.595Z,14.60
2019-04-23T07:12:37.536Z,14.90
2019-04-23T07:15:58.403Z,15.20
2019-04-23T07:18:34.534Z,15.40
2019-04-23T07:21:29.538Z,15.60
2019-04-23T07:27:07.579Z,16.00
2019-04-23T07:30:03.602Z,16.10
2019-04-23T07:32:44.697Z,16.40
2019-04-23T07:35:36.548Z,16.50
2019-04-23T07:38:48.154Z,16.80
2019-04-23T07:41:56.302Z,17.00
2019-04-23T07:48:06.297Z,17.20
2019-04-23T07:50:49.461Z,17.20
2019-04-23T07:53:39.867Z,17.20
2019-04-23T07:56:27.985Z,17.30
2019-04-23T07:59:20.687Z,17.30
2019-04-23T08:02:11.008Z,17.30
2019-04-23T08:05:04.751Z,17.50
2019-04-23T08:07:45.416Z,17.60
2019-04-23T08:10:43.781Z,17.60
2019-04-23T08:13:32.205Z,17.60
2019-04-23T08:16:25.860Z,17.70
2019-04-23T08:18:57.381Z,17.70
2019-04-23T08:22:02.993Z,17.90
2019-04-23T08:25:29.757Z,17.90
2019-04-23T08:28:12.041Z,17.90
2019-04-23T08:30:53.765Z,18.00
2019-04-23T08:33:50.629Z,18.00
2019-04-23T08:36:42.625Z,18.20
2019-04-23T08:39:26.522Z,18.30
2019-04-23T08:45:24.242Z,18.90
2019-04-23T08:51:21.152Z,19.50
2019-04-23T08:53:55.458Z,19.50
2019-04-23T08:56:57.003Z,19.40
2019-04-23T09:02:35.656Z,19.40
2019-04-23T09:05:16.142Z,19.40
2019-04-23T09:16:39.758Z,19.70
2019-04-23T09:22:25.153Z,19.80
2019-04-23T09:25:11.662Z,19.80
2019-04-23T09:27:54.734Z,19.90
2019-04-23T09:30:49.334Z,20.20
2019-04-23T09:34:05.099Z,20.40
2019-04-23T09:43:07.005Z,20.60
2019-04-23T09:46:22.468Z,20.50
2019-04-23T09:49:26.430Z,20.60
2019-04-23T09:52:02.573Z,20.70
2019-04-23T09:54:56.127Z,20.80
2019-04-23T09:57:43.348Z,20.60
2019-04-23T10:00:37.972Z,20.80
2019-04-23T10:03:04.818Z,20.70
2019-04-23T10:05:51.146Z,20.90
2019-04-23T10:08:37.716Z,20.70
2019-04-23T10:11:22.236Z,20.50
2019-04-23T10:14:10.595Z,20.20
2019-04-23T10:17:02.194Z,20.10
2019-04-23T10:19:50.840Z,20.10
2019-04-23T10:22:39.593Z,20.20
2019-04-23T10:25:27.928Z,20.20
2019-04-23T10:28:35.924Z,20.10
2019-04-23T10:31:25.137Z,20.10
2019-04-23T10:34:14.713Z,20.30
2019-04-23T10:37:02.918Z,20.50
2019-04-23T10:39:58.227Z,20.60
2019-04-23T10:42:43.996Z,20.80
2019-04-23T10:46:07.916Z,20.70
2019-04-23T10:49:53.224Z,20.90
2019-04-23T10:52:36.205Z,21.10
2019-04-23T10:55:12.060Z,21.40
2019-04-23T10:58:08.387Z,21.50
2019-04-23T11:00:59.570Z,21.50
2019-04-23T11:03:57.198Z,21.30
2019-04-23T11:06:42.699Z,21.40
2019-04-23T11:09:43.623Z,21.20
2019-04-23T11:15:58.899Z,20.90
2019-04-23T11:18:31.241Z,20.90
2019-04-23T11:24:11.734Z,21.00
2019-04-23T11:27:01.863Z,21.00
2019-04-23T11:29:42.521Z,20.80
2019-04-23T11:32:46.751Z,20.90
2019-04-23T11:38:43.620Z,20.80
2019-04-23T11:41:04.131Z,20.90
2019-04-23T11:43:48.953Z,20.70
2019-04-23T11:52:30.753Z,21.00
2019-04-23T11:55:30.290Z,21.10
2019-04-23T12:04:14.972Z,21.30
2019-04-23T12:07:22.819Z,21.20
2019-04-23T12:10:22.209Z,21.40
2019-04-23T12:13:03.842Z,21.50
2019-04-23T12:15:53.615Z,21.50
2019-04-23T12:19:01.868Z,21.40
2019-04-23T12:21:41.663Z,21.20
2019-04-23T12:24:42.137Z,21.30
2019-04-23T12:27:33.220Z,21.40
2019-04-23T12:30:15.023Z,21.60
2019-04-23T12:35:40.690Z,21.60
2019-04-23T12:38:31.204Z,21.40
2019-04-23T12:41:28.320Z,21.60
2019-04-23T12:44:14.883Z,21.50
2019-04-23T12:47:18.745Z,21.40
2019-04-23T12:50:38.549Z,21.50
2019-04-23T12:52:51.034Z,21.50
2019-04-23T12:55:40.267Z,21.50
2019-04-23T12:58:26.968Z,21.60
2019-04-23T13:01:22.627Z,21.60
2019-04-23T13:04:13.705Z,21.70
2019-04-23T13:07:01.647Z,21.80
2019-04-23T13:18:22.965Z,21.40
2019-04-23T13:21:36.337Z,21.60
2019-04-23T13:24:15.932Z,21.60
2019-04-23T13:27:19.880Z,21.60
2019-04-23T13:33:08.120Z,21.90
2019-04-23T13:36:01.168Z,21.90
2019-04-23T13:41:20.076Z,21.60
2019-04-23T13:44:08.758Z,21.70
2019-04-23T13:47:09.941Z,21.70
2019-04-23T13:50:03.359Z,21.70
2019-04-23T13:55:30.333Z,21.70
2019-04-23T14:01:23.492Z,21.70
2019-04-23T14:04:04.300Z,21.90
2019-04-23T14:06:49.464Z,22.10
2019-04-23T14:09:54.498Z,22.40
2019-04-23T14:12:42.029Z,22.20
2019-04-23T14:15:39.043Z,21.80
2019-04-23T14:21:14.274Z,21.50
2019-04-23T14:26:46.160Z,21.50
2019-04-23T14:29:39.442Z,21.50
2019-04-23T14:35:25.535Z,21.70
2019-04-23T14:41:11.075Z,21.60
2019-04-23T14:49:53.980Z,21.60
2019-04-23T14:52:30.306Z,21.60
2019-04-23T15:01:06.898Z,21.60
2019-04-23T15:06:46.406Z,22.00
2019-04-23T15:09:27.639Z,22.00
2019-04-23T15:12:24.581Z,22.10
2019-04-23T15:15:19.329Z,22.20
2019-04-23T15:17:56.177Z,21.80
2019-04-23T15:21:08.578Z,21.70
2019-04-23T15:23:51.910Z,21.80
2019-04-23T15:27:23.023Z,21.80
2019-04-23T15:29:04.548Z,21.70
2019-04-23T15:32:19.872Z,21.60
2019-04-23T15:35:11.630Z,21.60
2019-04-23T15:40:59.143Z,21.50
2019-04-23T15:43:30.470Z,21.40
2019-04-23T15:46:25.449Z,21.60
2019-04-23T15:49:15.949Z,21.80
2019-04-23T15:52:03.896Z,21.60
2019-04-23T15:54:47.213Z,21.80
2019-04-23T15:57:53.913Z,22.10
2019-04-23T16:00:25.907Z,22.00
2019-04-23T16:02:48.226Z,22.20
2019-04-23T16:05:37.200Z,22.40
2019-04-23T16:09:05.467Z,22.80
2019-04-23T16:11:44.795Z,22.70
2019-04-23T16:20:49.171Z,22.40
2019-04-23T16:23:28.076Z,22.30
2019-04-23T16:26:17.658Z,22.40
2019-04-23T16:32:04.246Z,22.80
2019-04-23T16:35:06.750Z,22.80
2019-04-23T16:37:52.873Z,22.60
2019-04-23T16:40:39.451Z,22.40
2019-04-23T16:43:18.028Z,22.20
2019-04-23T16:46:19.572Z,22.00
2019-04-23T16:51:54.210Z,21.60
2019-04-23T16:54:58.381Z,21.30
2019-04-23T16:57:59.877Z,21.20
2019-04-23T17:03:29.013Z,21.10
2019-04-23T17:06:10.300Z,20.90
2019-04-23T17:11:41.668Z,20.80
2019-04-23T17:14:35.816Z,20.80
2019-04-23T17:17:19.592Z,20.80
2019-04-23T17:20:21.930Z,20.40
2019-04-23T17:23:20.520Z,20.40
2019-04-23T17:25:55.902Z,20.50
2019-04-23T17:28:47.167Z,20.50
2019-04-23T17:34:30.411Z,20.20
2019-04-23T17:37:21.767Z,20.30
2019-04-23T17:40:14.092Z,20.10
2019-04-23T17:45:51.155Z,19.70
2019-04-23T17:48:34.652Z,19.60
2019-04-23T17:51:26.223Z,19.50
2019-04-23T17:54:25.096Z,19.30
2019-04-23T17:57:15.364Z,19.20
2019-04-23T18:03:45.544Z,18.90
2019-04-23T18:05:40.308Z,18.70
2019-04-23T18:08:34.604Z,18.60
2019-04-23T18:14:08.557Z,18.40
2019-04-23T18:17:08.045Z,18.40
2019-04-23T18:20:08.231Z,18.30
2019-04-23T18:23:00.421Z,18.20
2019-04-23T18:25:54.606Z,18.10
2019-04-23T18:29:00.311Z,18.00
2019-04-23T18:31:48.995Z,17.90
2019-04-23T18:34:49.770Z,17.80
2019-04-23T18:40:10.385Z,17.60
2019-04-23T18:51:32.109Z,17.50
2019-04-23T18:54:24.669Z,17.50
2019-04-23T18:57:18.344Z,17.50
2019-04-23T19:03:11.039Z,17.40
2019-04-23T19:06:25.721Z,17.40
2019-04-23T19:09:16.354Z,17.40
2019-04-23T19:12:29.963Z,17.30
2019-04-23T19:15:26.574Z,17.20
2019-04-23T19:18:00.416Z,17.20
2019-04-23T19:21:02.575Z,17.10
2019-04-23T19:23:47.648Z,17.10
2019-04-23T19:26:55.176Z,17.10
2019-04-23T19:29:32.931Z,17.00
2019-04-23T19:32:29.657Z,16.90
2019-04-23T19:34:59.647Z,16.90
2019-04-23T19:37:57.523Z,16.90
2019-04-23T19:40:46.325Z,16.70
2019-04-23T19:43:33.315Z,16.50
2019-04-23T19:51:59.455Z,15.50
2019-04-23T20:00:45.709Z,15.40
2019-04-23T20:06:08.161Z,15.40
2019-04-23T20:11:54.737Z,15.30
2019-04-23T20:14:41.682Z,15.20
2019-04-23T20:20:22.581Z,14.90
2019-04-23T20:23:08.912Z,14.90
2019-04-23T20:40:46.378Z,15.00
2019-04-23T20:43:18.968Z,15.10
2019-04-23T20:48:53.878Z,15.20
2019-04-23T20:51:58.167Z,15.20
2019-04-23T20:54:51.067Z,15.20
2019-04-23T20:57:44.058Z,15.20
2019-04-23T21:00:25.960Z,15.20
2019-04-23T21:06:08.807Z,15.00
2019-04-23T21:11:59.189Z,14.90
2019-04-23T21:14:59.714Z,14.80
2019-04-23T21:17:43.676Z,14.90
2019-04-23T21:20:24.427Z,14.90
2019-04-23T21:23:24.315Z,14.90
2019-04-23T21:25:58.826Z,15.00
2019-04-23T21:29:09.130Z,15.00
2019-04-23T21:32:06.929Z,15.00
2019-04-23T21:35:02.623Z,15.00
2019-04-23T21:41:06.055Z,15.10
2019-04-23T21:44:04.857Z,15.10
2019-04-23T21:55:03.602Z,14.90
2019-04-23T21:57:59.613Z,14.90
2019-04-23T22:00:53.060Z,14.80
2019-04-23T22:03:49.646Z,14.80
2019-04-23T22:06:31.582Z,14.80
2019-04-23T22:15:01.177Z,14.60
2019-04-23T22:17:50.204Z,14.50
2019-04-23T22:20:51.253Z,14.40
2019-04-23T22:23:42.086Z,14.30
2019-04-23T22:26:28.486Z,14.40
2019-04-23T22:31:56.656Z,14.60
2019-04-23T22:35:00.479Z,14.70
2019-04-23T22:37:58.672Z,14.70
2019-04-23T22:40:49.270Z,14.60
2019-04-23T22:43:57.469Z,14.50
2019-04-23T22:46:43.258Z,14.40
2019-04-23T22:49:42.308Z,14.40
2019-04-23T22:52:26.544Z,14.30
2019-04-23T23:01:19.655Z,14.10
2019-04-23T23:10:00.568Z,14.30
2019-04-23T23:13:01.845Z,14.30
2019-04-23T23:15:41.721Z,14.30
2019-04-23T23:18:23.688Z,14.30
2019-04-23T23:21:11.954Z,14.20
2019-04-23T23:29:49.659Z,14.00
2019-04-23T23:35:35.297Z,14.10
2019-04-23T23:38:13.630Z,14.10
2019-04-23T23:44:07.579Z,14.00
2019-04-23T23:49:48.723Z,13.90
2019-04-23T23:52:23.504Z,13.80
2019-04-23T23:55:07.875Z,13.90
2019-04-23T23:58:08.461Z,13.80
